Meteo Giornale » Osservazioni meteo Croazia » Pula Aerodrome

ore: 06:30 - Osservazioni Meteo Pula Aerodrome
Lat. 45° 54' N Lon. 13° 55' E Alt. 63 metri s.l.m.

sereno Europe/Zagreb

20 °C

Sereno

Temp. 24 Ore

16 °C

31 °C

Nord/Nord-Est

9.3 Km/h

Dew point 15 °C

Umidità 72 %

Visibilità  10 Km

Il sole sorge alle ore 05:23

Il sole tramonta alle ore 20:56

Data e Ora Cielo e Fenomeni T °C DP °C Um. % Pres. hPa Vis. km Vento km/h
Oggi h: 06:30 sereno Sereno 20 15 72 1015 10 N/NE 9.3
Oggi h: 06:00 sereno Sereno 18 15 82 1015 10 N/NE 9.3
Oggi h: 05:00 sereno Sereno 18 15 82 1015 10 N 9.3
Oggi h: 04:30 sereno Sereno 18 13 72 1015 10 N 1.8
Oggi h: 04:00 sereno Sereno 17 13 77 1015 10 N 1.8
Oggi h: 03:30 sereno Sereno 18 14 77 1015 10 N 5.5
Oggi h: 03:00 sereno Sereno 16 13 82 1015 10 N 3.7
Oggi h: 02:30 sereno Sereno 16 13 82 1016 10 N 3.7
Oggi h: 02:00 sereno Sereno 17 13 77 1016 10 N 5.5
Oggi h: 01:30 sereno Sereno 16 13 82 1016 10 N 3.7
Oggi h: 01:00 sereno Sereno 16 13 82 1016 10 N 3.7
Oggi h: 00:30 sereno Sereno 16 14 87 1016 10 N 5.5
Oggi h: 00:00 sereno Sereno 18 14 77 1016 10 N 5.5
Ieri h: 23:30 sereno Sereno 17 13 77 1016 10 N 3.7
Ieri h: 23:00 sereno Sereno 18 13 72 1016 10 N 1.8
Ieri h: 22:30 sereno Sereno 20 13 64 1016 10 N 5.5
Ieri h: 22:00 sereno Sereno 20 14 68 1015 10 N 5.5
Ieri h: 21:30 sereno Sereno 21 15 68 1015 10 N 3.7
Ieri h: 21:00 sereno Sereno 22 17 73 1015 10 N 1.8
Ieri h: 20:30 sereno Sereno 24 17 64 1015 10 O/NO 7.4
Ieri h: 20:00 sereno Sereno 26 16 54 1015 10 O/NO 13
Ieri h: 19:30 sereno Sereno 27 14 44 1015 10 O 11.1
Ieri h: 19:00 sereno Sereno 28 14 42 1015 10 O 7.4
Ieri h: 18:00 sereno Sereno 28 14 42 1016 10 O 14.8
Ieri h: 17:30 sereno Sereno 29 14 39 1016 10 O 16.7
Ieri h: 17:00 sereno Sereno 30 13 35 1016 10 O 13
Ieri h: 16:30 sereno Sereno 29 13 37 1016 10 O 13
Ieri h: 16:00 sereno Sereno 30 12 33 1016 10 O 14.8
Ieri h: 15:30 sereno Sereno 30 13 35 1017 10 O 16.7
Ieri h: 14:30 sereno Sereno 30 10 28 1017 10 O/SO 13
Ieri h: 14:00 sereno Sereno 30 9 27 1017 10 O/SO 13
Ieri h: 13:30 sereno Sereno 31 9 25 1017 10 O/SO 14.8
Ieri h: 13:00 sereno Sereno 30 10 28 1017 10 O/SO 14.8
Ieri h: 12:30 sereno Sereno 30 11 30 1017 10 O 14.8
Ieri h: 12:00 sereno Sereno 30 11 30 1017 10 SO 11.1
Ieri h: 10:30 sereno Sereno 29 7 25 1017 10 N 5.5
Ieri h: 10:00 sereno Sereno 28 8 28 1017 10 N 5.5
Ieri h: 09:30 sereno Sereno 28 9 30 1017 10 N 1.8
Ieri h: 09:00 sereno Sereno 26 9 34 1017 10 N 3.7
Ieri h: 08:30 sereno Sereno 24 9 38 1017 10 N 5.5
Ieri h: 08:00 sereno Sereno 23 12 49 1017 10 N 3.7